sensor_id;sensor_type;location;lat;lon;timestamp;P1;durP1;ratioP1;P2;durP2;ratioP2
66212;SDS011;53015;50.046;8.238;2024-03-08T00:01:45;16.48;;;9.82;;
66212;SDS011;53015;50.046;8.238;2024-03-08T00:04:10;19.90;;;9.38;;
66212;SDS011;53015;50.046;8.238;2024-03-08T00:06:36;18.63;;;9.70;;
66212;SDS011;53015;50.046;8.238;2024-03-08T00:09:01;15.18;;;9.07;;
66212;SDS011;53015;50.046;8.238;2024-03-08T00:11:28;19.60;;;9.85;;
66212;SDS011;53015;50.046;8.238;2024-03-08T00:13:54;16.70;;;10.23;;
66212;SDS011;53015;50.046;8.238;2024-03-08T00:16:19;19.15;;;10.05;;
66212;SDS011;53015;50.046;8.238;2024-03-08T00:18:44;18.25;;;9.85;;
66212;SDS011;53015;50.046;8.238;2024-03-08T00:21:10;19.65;;;9.52;;
66212;SDS011;53015;50.046;8.238;2024-03-08T00:23:35;15.63;;;9.40;;
66212;SDS011;53015;50.046;8.238;2024-03-08T00:26:01;16.58;;;9.18;;
66212;SDS011;53015;50.046;8.238;2024-03-08T00:28:28;18.88;;;10.20;;
66212;SDS011;53015;50.046;8.238;2024-03-08T00:30:53;18.33;;;9.60;;
66212;SDS011;53015;50.046;8.238;2024-03-08T00:33:19;15.63;;;9.30;;
66212;SDS011;53015;50.046;8.238;2024-03-08T00:35:44;18.10;;;9.35;;
66212;SDS011;53015;50.046;8.238;2024-03-08T00:38:10;17.52;;;9.32;;
66212;SDS011;53015;50.046;8.238;2024-03-08T00:40:35;17.10;;;10.02;;
66212;SDS011;53015;50.046;8.238;2024-03-08T00:43:01;17.00;;;9.30;;
66212;SDS011;53015;50.046;8.238;2024-03-08T00:45:28;17.75;;;10.00;;
66212;SDS011;53015;50.046;8.238;2024-03-08T00:47:54;18.23;;;9.90;;
66212;SDS011;53015;50.046;8.238;2024-03-08T00:50:19;14.80;;;8.95;;
66212;SDS011;53015;50.046;8.238;2024-03-08T00:52:45;15.60;;;9.20;;
66212;SDS011;53015;50.046;8.238;2024-03-08T00:55:12;17.08;;;9.20;;
66212;SDS011;53015;50.046;8.238;2024-03-08T00:57:37;18.75;;;10.05;;
66212;SDS011;53015;50.046;8.238;2024-03-08T01:00:04;16.85;;;9.45;;
66212;SDS011;53015;50.046;8.238;2024-03-08T01:02:31;16.23;;;9.70;;
66212;SDS011;53015;50.046;8.238;2024-03-08T01:04:57;19.13;;;9.18;;
66212;SDS011;53015;50.046;8.238;2024-03-08T01:07:22;18.00;;;9.45;;
66212;SDS011;53015;50.046;8.238;2024-03-08T01:09:48;16.50;;;9.32;;
66212;SDS011;53015;50.046;8.238;2024-03-08T01:12:13;17.38;;;9.38;;
66212;SDS011;53015;50.046;8.238;2024-03-08T01:14:38;17.88;;;9.73;;
66212;SDS011;53015;50.046;8.238;2024-03-08T01:17:04;17.90;;;9.32;;
66212;SDS011;53015;50.046;8.238;2024-03-08T01:19:31;15.98;;;9.35;;
66212;SDS011;53015;50.046;8.238;2024-03-08T01:21:56;17.02;;;9.45;;
66212;SDS011;53015;50.046;8.238;2024-03-08T01:24:22;16.80;;;9.55;;
66212;SDS011;53015;50.046;8.238;2024-03-08T01:26:47;17.02;;;10.15;;
66212;SDS011;53015;50.046;8.238;2024-03-08T01:29:13;13.63;;;8.85;;
66212;SDS011;53015;50.046;8.238;2024-03-08T01:31:38;15.32;;;8.52;;
66212;SDS011;53015;50.046;8.238;2024-03-08T01:34:04;15.43;;;9.45;;
66212;SDS011;53015;50.046;8.238;2024-03-08T01:36:30;17.02;;;10.02;;
66212;SDS011;53015;50.046;8.238;2024-03-08T01:38:56;17.58;;;9.50;;
66212;SDS011;53015;50.046;8.238;2024-03-08T01:41:22;16.27;;;9.77;;
66212;SDS011;53015;50.046;8.238;2024-03-08T01:43:47;17.85;;;9.48;;
66212;SDS011;53015;50.046;8.238;2024-03-08T01:46:13;15.32;;;9.43;;
66212;SDS011;53015;50.046;8.238;2024-03-08T01:48:42;14.77;;;9.50;;
66212;SDS011;53015;50.046;8.238;2024-03-08T01:51:08;19.83;;;10.60;;
66212;SDS011;53015;50.046;8.238;2024-03-08T01:53:35;17.70;;;10.00;;
66212;SDS011;53015;50.046;8.238;2024-03-08T01:56:01;20.25;;;9.90;;
66212;SDS011;53015;50.046;8.238;2024-03-08T01:58:27;18.30;;;9.95;;
66212;SDS011;53015;50.046;8.238;2024-03-08T02:00:54;17.67;;;9.70;;
66212;SDS011;53015;50.046;8.238;2024-03-08T02:03:22;18.10;;;10.43;;
66212;SDS011;53015;50.046;8.238;2024-03-08T02:05:47;17.00;;;9.88;;
66212;SDS011;53015;50.046;8.238;2024-03-08T02:08:13;18.50;;;10.00;;
66212;SDS011;53015;50.046;8.238;2024-03-08T02:10:41;17.58;;;9.55;;
66212;SDS011;53015;50.046;8.238;2024-03-08T02:13:06;18.65;;;9.43;;
66212;SDS011;53015;50.046;8.238;2024-03-08T02:18:16;20.20;;;9.43;;
66212;SDS011;53015;50.046;8.238;2024-03-08T02:20:43;19.95;;;9.57;;
66212;SDS011;53015;50.046;8.238;2024-03-08T02:23:08;18.58;;;9.82;;
66212;SDS011;53015;50.046;8.238;2024-03-08T02:25:34;15.10;;;8.98;;
66212;SDS011;53015;50.046;8.238;2024-03-08T02:28:00;21.10;;;10.07;;
66212;SDS011;53015;50.046;8.238;2024-03-08T02:30:26;16.20;;;9.23;;
66212;SDS011;53015;50.046;8.238;2024-03-08T02:32:51;17.70;;;9.68;;
66212;SDS011;53015;50.046;8.238;2024-03-08T02:35:17;16.45;;;10.10;;
66212;SDS011;53015;50.046;8.238;2024-03-08T02:37:43;18.30;;;9.57;;
66212;SDS011;53015;50.046;8.238;2024-03-08T02:40:09;17.17;;;9.80;;
66212;SDS011;53015;50.046;8.238;2024-03-08T02:42:36;17.95;;;10.02;;
66212;SDS011;53015;50.046;8.238;2024-03-08T02:45:02;18.23;;;10.27;;
66212;SDS011;53015;50.046;8.238;2024-03-08T02:47:27;19.00;;;10.75;;
66212;SDS011;53015;50.046;8.238;2024-03-08T02:49:53;17.10;;;9.93;;
66212;SDS011;53015;50.046;8.238;2024-03-08T02:52:18;17.73;;;9.23;;
66212;SDS011;53015;50.046;8.238;2024-03-08T02:54:45;17.15;;;9.82;;
66212;SDS011;53015;50.046;8.238;2024-03-08T02:57:10;18.58;;;9.75;;
66212;SDS011;53015;50.046;8.238;2024-03-08T02:59:36;22.90;;;10.07;;
66212;SDS011;53015;50.046;8.238;2024-03-08T03:02:02;15.75;;;9.73;;
66212;SDS011;53015;50.046;8.238;2024-03-08T03:04:27;15.90;;;10.40;;
66212;SDS011;53015;50.046;8.238;2024-03-08T03:06:53;13.95;;;8.82;;
66212;SDS011;53015;50.046;8.238;2024-03-08T03:09:19;18.33;;;9.65;;
66212;SDS011;53015;50.046;8.238;2024-03-08T03:11:46;17.33;;;10.18;;
66212;SDS011;53015;50.046;8.238;2024-03-08T03:14:11;20.55;;;10.82;;
66212;SDS011;53015;50.046;8.238;2024-03-08T03:16:37;18.48;;;10.18;;
66212;SDS011;53015;50.046;8.238;2024-03-08T03:19:02;18.42;;;10.85;;
66212;SDS011;53015;50.046;8.238;2024-03-08T03:21:28;17.40;;;10.20;;
66212;SDS011;53015;50.046;8.238;2024-03-08T03:23:53;16.90;;;9.80;;
66212;SDS011;53015;50.046;8.238;2024-03-08T03:26:19;18.10;;;9.95;;
66212;SDS011;53015;50.046;8.238;2024-03-08T03:28:46;17.00;;;9.50;;
66212;SDS011;53015;50.046;8.238;2024-03-08T03:31:11;18.42;;;10.18;;
66212;SDS011;53015;50.046;8.238;2024-03-08T03:33:37;19.58;;;9.65;;
66212;SDS011;53015;50.046;8.238;2024-03-08T03:36:03;17.42;;;9.85;;
66212;SDS011;53015;50.046;8.238;2024-03-08T03:38:29;19.52;;;9.98;;
66212;SDS011;53015;50.046;8.238;2024-03-08T03:40:55;18.33;;;9.95;;
66212;SDS011;53015;50.046;8.238;2024-03-08T03:43:21;17.08;;;9.85;;
66212;SDS011;53015;50.046;8.238;2024-03-08T03:45:48;19.15;;;10.40;;
66212;SDS011;53015;50.046;8.238;2024-03-08T03:48:14;18.40;;;10.23;;
66212;SDS011;53015;50.046;8.238;2024-03-08T03:50:39;19.02;;;10.23;;
66212;SDS011;53015;50.046;8.238;2024-03-08T03:53:05;16.48;;;9.88;;
66212;SDS011;53015;50.046;8.238;2024-03-08T03:55:31;21.55;;;11.10;;
66212;SDS011;53015;50.046;8.238;2024-03-08T03:57:57;17.10;;;10.10;;
66212;SDS011;53015;50.046;8.238;2024-03-08T04:00:22;24.55;;;11.93;;
66212;SDS011;53015;50.046;8.238;2024-03-08T04:02:49;17.45;;;10.80;;
66212;SDS011;53015;50.046;8.238;2024-03-08T04:05:15;22.85;;;11.20;;
66212;SDS011;53015;50.046;8.238;2024-03-08T04:07:40;19.77;;;11.35;;
66212;SDS011;53015;50.046;8.238;2024-03-08T04:10:06;20.05;;;10.95;;
66212;SDS011;53015;50.046;8.238;2024-03-08T04:12:34;18.58;;;10.13;;
66212;SDS011;53015;50.046;8.238;2024-03-08T04:14:59;20.17;;;10.65;;
66212;SDS011;53015;50.046;8.238;2024-03-08T04:17:25;19.58;;;10.68;;
66212;SDS011;53015;50.046;8.238;2024-03-08T04:19:52;20.95;;;11.10;;
66212;SDS011;53015;50.046;8.238;2024-03-08T04:22:18;19.75;;;10.48;;
66212;SDS011;53015;50.046;8.238;2024-03-08T04:24:43;20.30;;;11.63;;
66212;SDS011;53015;50.046;8.238;2024-03-08T04:27:09;23.35;;;10.90;;
66212;SDS011;53015;50.046;8.238;2024-03-08T04:29:34;16.83;;;11.00;;
66212;SDS011;53015;50.046;8.238;2024-03-08T04:32:01;20.70;;;10.43;;
66212;SDS011;53015;50.046;8.238;2024-03-08T04:34:28;21.10;;;11.10;;
66212;SDS011;53015;50.046;8.238;2024-03-08T04:36:55;20.85;;;11.18;;
66212;SDS011;53015;50.046;8.238;2024-03-08T04:39:22;18.83;;;10.60;;
66212;SDS011;53015;50.046;8.238;2024-03-08T04:41:47;20.35;;;10.27;;
66212;SDS011;53015;50.046;8.238;2024-03-08T04:44:14;21.33;;;11.27;;
66212;SDS011;53015;50.046;8.238;2024-03-08T04:46:40;21.77;;;10.82;;
66212;SDS011;53015;50.046;8.238;2024-03-08T04:49:06;21.30;;;11.43;;
66212;SDS011;53015;50.046;8.238;2024-03-08T04:51:31;19.75;;;10.88;;
66212;SDS011;53015;50.046;8.238;2024-03-08T04:53:58;18.73;;;10.52;;
66212;SDS011;53015;50.046;8.238;2024-03-08T04:56:24;22.08;;;11.50;;
66212;SDS011;53015;50.046;8.238;2024-03-08T04:58:49;22.08;;;11.32;;
66212;SDS011;53015;50.046;8.238;2024-03-08T05:01:15;18.88;;;10.48;;
66212;SDS011;53015;50.046;8.238;2024-03-08T05:03:40;21.10;;;10.98;;
66212;SDS011;53015;50.046;8.238;2024-03-08T05:06:06;21.80;;;11.68;;
66212;SDS011;53015;50.046;8.238;2024-03-08T05:08:31;21.17;;;11.15;;
66212;SDS011;53015;50.046;8.238;2024-03-08T05:10:58;24.35;;;11.85;;
66212;SDS011;53015;50.046;8.238;2024-03-08T05:13:24;23.45;;;11.60;;
66212;SDS011;53015;50.046;8.238;2024-03-08T05:15:49;25.27;;;11.65;;
66212;SDS011;53015;50.046;8.238;2024-03-08T05:18:15;20.75;;;11.23;;
66212;SDS011;53015;50.046;8.238;2024-03-08T05:20:41;26.55;;;11.75;;
66212;SDS011;53015;50.046;8.238;2024-03-08T05:23:06;21.88;;;12.57;;
66212;SDS011;53015;50.046;8.238;2024-03-08T05:25:31;21.48;;;11.18;;
66212;SDS011;53015;50.046;8.238;2024-03-08T05:27:58;18.38;;;11.02;;
66212;SDS011;53015;50.046;8.238;2024-03-08T05:30:24;20.65;;;11.02;;
66212;SDS011;53015;50.046;8.238;2024-03-08T05:32:49;23.05;;;12.07;;
66212;SDS011;53015;50.046;8.238;2024-03-08T05:35:15;26.75;;;12.25;;
66212;SDS011;53015;50.046;8.238;2024-03-08T05:37:40;21.52;;;11.77;;
66212;SDS011;53015;50.046;8.238;2024-03-08T05:40:06;20.02;;;11.60;;
66212;SDS011;53015;50.046;8.238;2024-03-08T05:42:32;21.33;;;12.20;;
66212;SDS011;53015;50.046;8.238;2024-03-08T05:44:59;25.02;;;12.48;;
66212;SDS011;53015;50.046;8.238;2024-03-08T05:47:25;21.90;;;12.13;;
66212;SDS011;53015;50.046;8.238;2024-03-08T05:49:50;22.50;;;12.05;;
66212;SDS011;53015;50.046;8.238;2024-03-08T05:52:16;21.65;;;11.77;;
66212;SDS011;53015;50.046;8.238;2024-03-08T05:54:41;21.70;;;12.23;;
66212;SDS011;53015;50.046;8.238;2024-03-08T05:57:06;28.42;;;12.63;;
66212;SDS011;53015;50.046;8.238;2024-03-08T05:59:32;22.70;;;11.30;;
66212;SDS011;53015;50.046;8.238;2024-03-08T06:01:59;21.65;;;12.00;;
66212;SDS011;53015;50.046;8.238;2024-03-08T06:04:24;23.65;;;11.88;;
66212;SDS011;53015;50.046;8.238;2024-03-08T06:06:50;24.00;;;12.32;;
66212;SDS011;53015;50.046;8.238;2024-03-08T06:09:15;24.02;;;12.80;;
66212;SDS011;53015;50.046;8.238;2024-03-08T06:11:41;21.08;;;11.40;;
66212;SDS011;53015;50.046;8.238;2024-03-08T06:14:06;24.02;;;12.05;;
66212;SDS011;53015;50.046;8.238;2024-03-08T06:16:32;21.60;;;10.82;;
66212;SDS011;53015;50.046;8.238;2024-03-08T06:18:58;23.13;;;12.32;;
66212;SDS011;53015;50.046;8.238;2024-03-08T06:21:24;28.08;;;13.38;;
66212;SDS011;53015;50.046;8.238;2024-03-08T06:23:49;22.13;;;12.45;;
66212;SDS011;53015;50.046;8.238;2024-03-08T06:26:15;23.50;;;12.20;;
66212;SDS011;53015;50.046;8.238;2024-03-08T06:28:40;21.35;;;12.65;;
66212;SDS011;53015;50.046;8.238;2024-03-08T06:31:06;27.98;;;12.25;;
66212;SDS011;53015;50.046;8.238;2024-03-08T06:33:31;22.77;;;12.40;;
66212;SDS011;53015;50.046;8.238;2024-03-08T06:35:58;20.90;;;11.30;;
66212;SDS011;53015;50.046;8.238;2024-03-08T06:38:24;22.55;;;12.30;;
66212;SDS011;53015;50.046;8.238;2024-03-08T06:40:49;24.02;;;12.38;;
66212;SDS011;53015;50.046;8.238;2024-03-08T06:43:15;24.98;;;13.02;;
66212;SDS011;53015;50.046;8.238;2024-03-08T06:45:41;22.88;;;12.88;;
66212;SDS011;53015;50.046;8.238;2024-03-08T06:48:06;28.98;;;13.07;;
66212;SDS011;53015;50.046;8.238;2024-03-08T06:50:32;31.77;;;12.95;;
66212;SDS011;53015;50.046;8.238;2024-03-08T06:52:59;24.00;;;12.93;;
66212;SDS011;53015;50.046;8.238;2024-03-08T06:55:24;24.73;;;12.35;;
66212;SDS011;53015;50.046;8.238;2024-03-08T06:57:50;24.30;;;12.85;;
66212;SDS011;53015;50.046;8.238;2024-03-08T07:00:15;24.65;;;12.35;;
66212;SDS011;53015;50.046;8.238;2024-03-08T07:02:41;23.25;;;12.57;;
66212;SDS011;53015;50.046;8.238;2024-03-08T07:05:07;24.02;;;12.55;;
66212;SDS011;53015;50.046;8.238;2024-03-08T07:07:32;24.90;;;13.23;;
66212;SDS011;53015;50.046;8.238;2024-03-08T07:09:59;26.35;;;12.77;;
66212;SDS011;53015;50.046;8.238;2024-03-08T07:12:25;20.98;;;12.45;;
66212;SDS011;53015;50.046;8.238;2024-03-08T07:14:50;24.75;;;12.13;;
66212;SDS011;53015;50.046;8.238;2024-03-08T07:17:16;26.23;;;11.95;;
66212;SDS011;53015;50.046;8.238;2024-03-08T07:19:41;29.50;;;13.02;;
66212;SDS011;53015;50.046;8.238;2024-03-08T07:22:07;23.08;;;11.75;;
66212;SDS011;53015;50.046;8.238;2024-03-08T07:24:32;20.13;;;11.30;;
66212;SDS011;53015;50.046;8.238;2024-03-08T07:26:59;21.50;;;11.75;;
66212;SDS011;53015;50.046;8.238;2024-03-08T07:29:25;21.80;;;12.27;;
66212;SDS011;53015;50.046;8.238;2024-03-08T07:31:50;20.35;;;11.68;;
66212;SDS011;53015;50.046;8.238;2024-03-08T07:34:16;22.63;;;11.27;;
66212;SDS011;53015;50.046;8.238;2024-03-08T07:36:41;23.17;;;12.48;;
66212;SDS011;53015;50.046;8.238;2024-03-08T07:39:07;25.92;;;11.40;;
66212;SDS011;53015;50.046;8.238;2024-03-08T07:41:32;23.50;;;11.98;;
66212;SDS011;53015;50.046;8.238;2024-03-08T07:43:59;26.15;;;12.40;;
66212;SDS011;53015;50.046;8.238;2024-03-08T07:46:25;21.55;;;12.02;;
66212;SDS011;53015;50.046;8.238;2024-03-08T07:48:50;21.52;;;10.98;;
66212;SDS011;53015;50.046;8.238;2024-03-08T07:51:16;19.80;;;11.50;;
66212;SDS011;53015;50.046;8.238;2024-03-08T07:53:41;22.50;;;11.65;;
66212;SDS011;53015;50.046;8.238;2024-03-08T07:56:07;24.77;;;12.05;;
66212;SDS011;53015;50.046;8.238;2024-03-08T07:58:32;23.27;;;11.55;;
66212;SDS011;53015;50.046;8.238;2024-03-08T08:00:59;20.33;;;11.65;;
66212;SDS011;53015;50.046;8.238;2024-03-08T08:03:25;22.08;;;11.32;;
66212;SDS011;53015;50.046;8.238;2024-03-08T08:05:50;22.35;;;11.48;;
66212;SDS011;53015;50.046;8.238;2024-03-08T08:08:16;19.10;;;11.80;;
66212;SDS011;53015;50.046;8.238;2024-03-08T08:10:41;20.30;;;12.20;;
66212;SDS011;53015;50.046;8.238;2024-03-08T08:13:06;24.40;;;12.23;;
66212;SDS011;53015;50.046;8.238;2024-03-08T08:15:32;22.67;;;12.65;;
66212;SDS011;53015;50.046;8.238;2024-03-08T08:17:59;23.27;;;11.55;;
66212;SDS011;53015;50.046;8.238;2024-03-08T08:20:24;21.08;;;11.38;;
66212;SDS011;53015;50.046;8.238;2024-03-08T08:22:50;21.23;;;11.63;;
66212;SDS011;53015;50.046;8.238;2024-03-08T08:25:15;23.55;;;11.60;;
66212;SDS011;53015;50.046;8.238;2024-03-08T08:27:41;21.65;;;11.77;;
66212;SDS011;53015;50.046;8.238;2024-03-08T08:30:07;21.15;;;10.98;;
66212;SDS011;53015;50.046;8.238;2024-03-08T08:32:33;25.70;;;12.18;;
66212;SDS011;53015;50.046;8.238;2024-03-08T08:35:00;19.70;;;11.18;;
66212;SDS011;53015;50.046;8.238;2024-03-08T08:37:26;21.73;;;11.95;;
66212;SDS011;53015;50.046;8.238;2024-03-08T08:39:51;21.02;;;11.15;;
66212;SDS011;53015;50.046;8.238;2024-03-08T08:42:17;21.15;;;11.55;;
66212;SDS011;53015;50.046;8.238;2024-03-08T08:44:42;24.35;;;12.07;;
66212;SDS011;53015;50.046;8.238;2024-03-08T08:47:07;27.17;;;11.98;;
66212;SDS011;53015;50.046;8.238;2024-03-08T08:49:33;24.90;;;11.05;;
66212;SDS011;53015;50.046;8.238;2024-03-08T08:52:00;19.00;;;10.15;;
66212;SDS011;53015;50.046;8.238;2024-03-08T08:54:25;24.58;;;12.15;;
66212;SDS011;53015;50.046;8.238;2024-03-08T08:56:51;22.23;;;11.25;;
66212;SDS011;53015;50.046;8.238;2024-03-08T08:59:16;33.78;;;12.60;;
66212;SDS011;53015;50.046;8.238;2024-03-08T09:01:42;21.17;;;11.10;;
66212;SDS011;53015;50.046;8.238;2024-03-08T09:04:07;21.10;;;11.50;;
66212;SDS011;53015;50.046;8.238;2024-03-08T09:06:33;25.55;;;12.65;;
66212;SDS011;53015;50.046;8.238;2024-03-08T09:08:59;20.10;;;11.73;;
66212;SDS011;53015;50.046;8.238;2024-03-08T09:11:25;23.20;;;11.60;;
66212;SDS011;53015;50.046;8.238;2024-03-08T09:13:50;22.63;;;11.85;;
66212;SDS011;53015;50.046;8.238;2024-03-08T09:16:16;20.88;;;11.88;;
66212;SDS011;53015;50.046;8.238;2024-03-08T09:18:42;19.60;;;11.25;;
66212;SDS011;53015;50.046;8.238;2024-03-08T09:21:07;19.67;;;11.10;;
66212;SDS011;53015;50.046;8.238;2024-03-08T09:23:32;23.83;;;11.15;;
66212;SDS011;53015;50.046;8.238;2024-03-08T09:25:59;18.38;;;10.55;;
66212;SDS011;53015;50.046;8.238;2024-03-08T09:28:25;26.70;;;11.07;;
66212;SDS011;53015;50.046;8.238;2024-03-08T09:30:50;25.45;;;11.52;;
66212;SDS011;53015;50.046;8.238;2024-03-08T09:33:16;20.98;;;11.25;;
66212;SDS011;53015;50.046;8.238;2024-03-08T09:35:41;20.38;;;10.98;;
66212;SDS011;53015;50.046;8.238;2024-03-08T09:38:07;24.60;;;11.23;;
66212;SDS011;53015;50.046;8.238;2024-03-08T09:40:32;18.40;;;10.38;;
66212;SDS011;53015;50.046;8.238;2024-03-08T09:42:59;26.63;;;11.27;;
66212;SDS011;53015;50.046;8.238;2024-03-08T09:45:24;20.13;;;10.85;;
66212;SDS011;53015;50.046;8.238;2024-03-08T09:47:51;26.30;;;10.88;;
66212;SDS011;53015;50.046;8.238;2024-03-08T09:50:16;19.98;;;11.30;;
66212;SDS011;53015;50.046;8.238;2024-03-08T09:52:42;22.42;;;10.20;;
66212;SDS011;53015;50.046;8.238;2024-03-08T09:55:08;19.95;;;11.57;;
66212;SDS011;53015;50.046;8.238;2024-03-08T09:57:35;20.23;;;11.10;;
66212;SDS011;53015;50.046;8.238;2024-03-08T10:00:03;16.45;;;10.43;;
66212;SDS011;53015;50.046;8.238;2024-03-08T10:02:29;22.58;;;10.50;;
66212;SDS011;53015;50.046;8.238;2024-03-08T10:04:55;19.35;;;10.75;;
66212;SDS011;53015;50.046;8.238;2024-03-08T10:07:22;17.33;;;10.25;;
66212;SDS011;53015;50.046;8.238;2024-03-08T10:09:48;17.58;;;9.93;;
66212;SDS011;53015;50.046;8.238;2024-03-08T10:12:17;16.88;;;10.55;;
66212;SDS011;53015;50.046;8.238;2024-03-08T10:14:42;19.75;;;10.40;;
66212;SDS011;53015;50.046;8.238;2024-03-08T10:17:09;19.00;;;10.25;;
66212;SDS011;53015;50.046;8.238;2024-03-08T10:19:35;16.70;;;9.80;;
66212;SDS011;53015;50.046;8.238;2024-03-08T10:22:01;17.45;;;10.32;;
66212;SDS011;53015;50.046;8.238;2024-03-08T10:24:26;19.38;;;10.10;;
66212;SDS011;53015;50.046;8.238;2024-03-08T10:26:52;16.88;;;9.50;;
66212;SDS011;53015;50.046;8.238;2024-03-08T10:29:18;17.85;;;9.63;;
66212;SDS011;53015;50.046;8.238;2024-03-08T10:31:44;14.50;;;8.85;;
66212;SDS011;53015;50.046;8.238;2024-03-08T10:34:10;14.43;;;9.35;;
66212;SDS011;53015;50.046;8.238;2024-03-08T10:36:36;18.13;;;9.43;;
66212;SDS011;53015;50.046;8.238;2024-03-08T10:39:03;16.65;;;8.93;;
66212;SDS011;53015;50.046;8.238;2024-03-08T10:41:37;16.00;;;9.13;;
66212;SDS011;53015;50.046;8.238;2024-03-08T10:44:10;19.67;;;9.00;;
66212;SDS011;53015;50.046;8.238;2024-03-08T10:46:44;16.10;;;8.60;;
66212;SDS011;53015;50.046;8.238;2024-03-08T10:49:25;21.17;;;8.90;;
66212;SDS011;53015;50.046;8.238;2024-03-08T10:51:55;21.77;;;10.20;;
66212;SDS011;53015;50.046;8.238;2024-03-08T10:54:22;16.15;;;8.60;;
66212;SDS011;53015;50.046;8.238;2024-03-08T10:56:50;18.67;;;8.60;;
66212;SDS011;53015;50.046;8.238;2024-03-08T10:59:16;17.85;;;8.68;;
66212;SDS011;53015;50.046;8.238;2024-03-08T11:01:42;18.95;;;8.95;;
66212;SDS011;53015;50.046;8.238;2024-03-08T11:04:08;17.90;;;7.85;;
66212;SDS011;53015;50.046;8.238;2024-03-08T11:06:42;14.18;;;7.45;;
66212;SDS011;53015;50.046;8.238;2024-03-08T11:09:22;16.77;;;8.43;;
66212;SDS011;53015;50.046;8.238;2024-03-08T11:11:54;21.15;;;8.35;;
66212;SDS011;53015;50.046;8.238;2024-03-08T11:14:47;14.85;;;8.02;;
66212;SDS011;53015;50.046;8.238;2024-03-08T11:17:13;12.13;;;7.45;;
66212;SDS011;53015;50.046;8.238;2024-03-08T11:19:38;15.27;;;8.10;;
66212;SDS011;53015;50.046;8.238;2024-03-08T11:22:19;18.67;;;7.82;;
66212;SDS011;53015;50.046;8.238;2024-03-08T11:24:46;19.25;;;8.55;;
66212;SDS011;53015;50.046;8.238;2024-03-08T11:27:12;13.75;;;7.75;;
66212;SDS011;53015;50.046;8.238;2024-03-08T11:29:38;14.88;;;7.97;;
66212;SDS011;53015;50.046;8.238;2024-03-08T11:32:04;11.88;;;7.68;;
66212;SDS011;53015;50.046;8.238;2024-03-08T11:34:29;15.02;;;7.82;;
66212;SDS011;53015;50.046;8.238;2024-03-08T11:36:55;11.70;;;6.88;;
66212;SDS011;53015;50.046;8.238;2024-03-08T11:39:22;15.90;;;8.13;;
66212;SDS011;53015;50.046;8.238;2024-03-08T11:41:47;17.13;;;8.00;;
66212;SDS011;53015;50.046;8.238;2024-03-08T11:44:13;13.70;;;8.27;;
66212;SDS011;53015;50.046;8.238;2024-03-08T11:46:39;13.35;;;7.88;;
66212;SDS011;53015;50.046;8.238;2024-03-08T11:49:04;14.73;;;7.55;;
66212;SDS011;53015;50.046;8.238;2024-03-08T11:51:30;11.50;;;7.10;;
66212;SDS011;53015;50.046;8.238;2024-03-08T11:53:57;11.65;;;7.53;;
66212;SDS011;53015;50.046;8.238;2024-03-08T11:56:24;12.88;;;8.00;;
66212;SDS011;53015;50.046;8.238;2024-03-08T11:58:52;15.43;;;7.90;;
66212;SDS011;53015;50.046;8.238;2024-03-08T12:01:18;12.70;;;7.90;;
66212;SDS011;53015;50.046;8.238;2024-03-08T12:03:44;12.98;;;7.15;;
66212;SDS011;53015;50.046;8.238;2024-03-08T12:08:42;16.02;;;7.07;;
66212;SDS011;53015;50.046;8.238;2024-03-08T12:11:08;15.05;;;7.78;;
66212;SDS011;53015;50.046;8.238;2024-03-08T12:13:34;17.95;;;8.20;;
66212;SDS011;53015;50.046;8.238;2024-03-08T12:16:00;17.38;;;8.38;;
66212;SDS011;53015;50.046;8.238;2024-03-08T12:18:27;15.30;;;7.80;;
66212;SDS011;53015;50.046;8.238;2024-03-08T12:21:03;16.48;;;8.10;;
66212;SDS011;53015;50.046;8.238;2024-03-08T12:23:29;12.90;;;7.80;;
66212;SDS011;53015;50.046;8.238;2024-03-08T12:25:55;15.85;;;8.52;;
66212;SDS011;53015;50.046;8.238;2024-03-08T12:28:20;13.80;;;7.78;;
66212;SDS011;53015;50.046;8.238;2024-03-08T12:30:48;13.40;;;7.13;;
66212;SDS011;53015;50.046;8.238;2024-03-08T12:33:14;17.33;;;8.40;;
66212;SDS011;53015;50.046;8.238;2024-03-08T12:35:40;18.42;;;8.30;;
66212;SDS011;53015;50.046;8.238;2024-03-08T12:38:06;17.73;;;7.88;;
66212;SDS011;53015;50.046;8.238;2024-03-08T12:40:32;14.68;;;8.15;;
66212;SDS011;53015;50.046;8.238;2024-03-08T12:42:58;13.98;;;7.60;;
66212;SDS011;53015;50.046;8.238;2024-03-08T12:45:23;12.77;;;7.60;;
66212;SDS011;53015;50.046;8.238;2024-03-08T12:47:51;14.98;;;8.38;;
66212;SDS011;53015;50.046;8.238;2024-03-08T12:50:17;13.85;;;8.55;;
66212;SDS011;53015;50.046;8.238;2024-03-08T12:52:42;15.43;;;8.07;;
66212;SDS011;53015;50.046;8.238;2024-03-08T12:55:08;14.02;;;8.55;;
66212;SDS011;53015;50.046;8.238;2024-03-08T12:57:34;14.52;;;8.45;;
66212;SDS011;53015;50.046;8.238;2024-03-08T13:00:00;15.07;;;9.02;;
66212;SDS011;53015;50.046;8.238;2024-03-08T13:02:26;15.98;;;8.63;;
66212;SDS011;53015;50.046;8.238;2024-03-08T13:04:53;13.00;;;8.23;;
66212;SDS011;53015;50.046;8.238;2024-03-08T13:07:18;13.40;;;8.52;;
66212;SDS011;53015;50.046;8.238;2024-03-08T13:09:44;14.85;;;8.27;;
66212;SDS011;53015;50.046;8.238;2024-03-08T13:12:09;14.10;;;8.18;;
66212;SDS011;53015;50.046;8.238;2024-03-08T13:14:35;16.67;;;8.73;;
66212;SDS011;53015;50.046;8.238;2024-03-08T13:17:00;18.02;;;8.27;;
66212;SDS011;53015;50.046;8.238;2024-03-08T13:19:26;14.75;;;8.55;;
66212;SDS011;53015;50.046;8.238;2024-03-08T13:21:53;16.50;;;8.80;;
66212;SDS011;53015;50.046;8.238;2024-03-08T13:24:18;20.90;;;9.27;;
66212;SDS011;53015;50.046;8.238;2024-03-08T13:26:44;16.80;;;9.63;;
66212;SDS011;53015;50.046;8.238;2024-03-08T13:29:09;18.80;;;9.35;;
66212;SDS011;53015;50.046;8.238;2024-03-08T13:31:35;17.25;;;9.63;;
66212;SDS011;53015;50.046;8.238;2024-03-08T13:34:00;16.45;;;9.10;;
66212;SDS011;53015;50.046;8.238;2024-03-08T13:36:25;16.45;;;9.27;;
66212;SDS011;53015;50.046;8.238;2024-03-08T13:38:52;14.63;;;8.63;;
66212;SDS011;53015;50.046;8.238;2024-03-08T13:41:19;16.48;;;8.95;;
66212;SDS011;53015;50.046;8.238;2024-03-08T13:43:45;15.85;;;8.85;;
66212;SDS011;53015;50.046;8.238;2024-03-08T13:46:12;17.50;;;8.75;;
66212;SDS011;53015;50.046;8.238;2024-03-08T13:48:37;11.85;;;8.23;;
66212;SDS011;53015;50.046;8.238;2024-03-08T13:51:03;19.77;;;8.68;;
66212;SDS011;53015;50.046;8.238;2024-03-08T13:53:29;16.48;;;8.77;;
66212;SDS011;53015;50.046;8.238;2024-03-08T13:55:56;13.52;;;8.75;;
66212;SDS011;53015;50.046;8.238;2024-03-08T13:58:21;17.33;;;9.13;;
66212;SDS011;53015;50.046;8.238;2024-03-08T14:00:47;17.10;;;8.50;;
66212;SDS011;53015;50.046;8.238;2024-03-08T14:03:13;19.08;;;9.65;;
66212;SDS011;53015;50.046;8.238;2024-03-08T14:05:38;15.68;;;9.10;;
66212;SDS011;53015;50.046;8.238;2024-03-08T14:08:05;16.30;;;8.80;;
66212;SDS011;53015;50.046;8.238;2024-03-08T14:10:31;14.52;;;8.40;;
66212;SDS011;53015;50.046;8.238;2024-03-08T14:12:58;16.40;;;8.48;;
66212;SDS011;53015;50.046;8.238;2024-03-08T14:15:23;16.08;;;8.30;;
66212;SDS011;53015;50.046;8.238;2024-03-08T14:17:52;15.30;;;8.13;;
66212;SDS011;53015;50.046;8.238;2024-03-08T14:20:18;14.77;;;8.32;;
66212;SDS011;53015;50.046;8.238;2024-03-08T14:22:43;14.40;;;8.30;;
66212;SDS011;53015;50.046;8.238;2024-03-08T14:25:09;12.77;;;8.25;;
66212;SDS011;53015;50.046;8.238;2024-03-08T14:27:34;15.73;;;8.98;;